Bryan, Texas
Current Conditions -  °F | °C
As of 5:55 PM on Friday 31 Oct 2014 (Local Time) from KCFD Reporting Station
Clear Clear  
Wind Chill: 67°   Ceiling: Unl
Heat Index: 67°   Visibility: 10mi
Dew Point: 43°   Wind: 10mph
Humidity: 41%   Direction: 350°N
Pressure: 30.24"   Gusts: 16mph
Location:  30.67°N, 96.37°W
Report Text: KCFD 312255Z AUTO 35009G14KT 10SM CLR 20/06 A3024 RMK AO2 T01970061
Loading
Personal Weather Stations






























Interactive Weather Map New forecast layout! Learn more

10-Day Weather Forecast

Advertisements
Track Severe Weather on mobile